Time;durP1;ratioP1;P1;durP2;ratioP2;P2;SDS_P1;SDS_P2;PMS_P1;PMS_P2;Temp;Humidity;BMP_temperature;BMP_pressure;BME280_temperature;BME280_humidity;BME280_pressure;Samples;Min_cycle;Max_cycle;Signal;HPM_P1;HPM_P2
2022/11/30 00:01:11;;;;;;;;;;;5.90;99.90;;;;;;5059862;28;19920;-80
2022/11/30 00:03:37;;;;;;;;;;;5.90;99.90;;;;;;5050220;28;19932;-80
2022/11/30 00:06:06;;;;;;;;;;;6.10;99.90;;;;;;5058680;28;19927;-80
2022/11/30 00:08:32;;;;;;;;;;;5.90;99.90;;;;;;5028357;28;20010;-80
2022/11/30 00:10:57;;;;;;;;;;;5.90;99.90;;;;;;5037387;28;20033;-80
2022/11/30 00:13:23;;;;;;;;;;;6.40;99.90;;;;;;5027486;28;20016;-80
2022/11/30 00:15:49;;;;;;;;;;;5.90;99.90;;;;;;5061960;28;19928;-81
2022/11/30 00:18:16;;;;;;;;;;;5.90;99.90;;;;;;5039862;28;19920;-81
2022/11/30 00:20:42;;;;;;;;;;;6.60;99.90;;;;;;5057350;28;19928;-81
2022/11/30 00:23:08;;;;;;;;;;;6.00;99.90;;;;;;5040216;28;19940;-81
2022/11/30 00:25:35;;;;;;;;;;;6.00;99.90;;;;;;5038432;28;19963;-80
2022/11/30 00:28:01;;;;;;;;;;;6.00;99.90;;;;;;5038792;28;20134;-81
2022/11/30 00:30:27;;;;;;;;;;;6.50;99.90;;;;;;5040302;28;19932;-81
2022/11/30 00:32:56;;;;;;;;;;;5.90;99.90;;;;;;5064453;28;20623;-81
2022/11/30 00:35:22;;;;;;;;;;;6.00;99.90;;;;;;5041294;28;19929;-80
2022/11/30 00:37:47;;;;;;;;;;;6.00;99.90;;;;;;5058558;28;19924;-81
2022/11/30 00:40:13;;;;;;;;;;;6.00;99.90;;;;;;5031131;28;19924;-81
2022/11/30 00:42:39;;;;;;;;;;;6.00;99.90;;;;;;5042461;28;19964;-80
2022/11/30 00:45:05;;;;;;;;;;;6.00;99.90;;;;;;5039152;28;20385;-81
2022/11/30 00:47:30;;;;;;;;;;;6.00;99.90;;;;;;5040666;28;19920;-80
2022/11/30 00:49:56;;;;;;;;;;;6.00;99.90;;;;;;5022553;28;19932;-81
2022/11/30 00:52:22;;;;;;;;;;;6.00;99.90;;;;;;5046117;28;19920;-80
2022/11/30 00:54:47;;;;;;;;;;;6.00;99.90;;;;;;5036807;28;19998;-80
2022/11/30 00:57:13;;;;;;;;;;;6.00;99.90;;;;;;5042205;28;19926;-81
2022/11/30 00:59:38;;;;;;;;;;;6.00;99.90;;;;;;5040421;28;19928;-81
2022/11/30 01:02:04;;;;;;;;;;;6.00;99.90;;;;;;5038369;28;20051;-81
2022/11/30 01:04:29;;;;;;;;;;;6.00;99.90;;;;;;5038919;28;19978;-81
2022/11/30 01:06:55;;;;;;;;;;;6.00;99.90;;;;;;5059058;28;19973;-81
2022/11/30 01:09:20;;;;;;;;;;;6.00;99.90;;;;;;5047520;28;19921;-81
2022/11/30 01:11:46;;;;;;;;;;;6.10;99.90;;;;;;5023757;28;19924;-81
2022/11/30 01:14:11;;;;;;;;;;;6.00;99.90;;;;;;5038504;28;19921;-81
2022/11/30 01:16:37;;;;;;;;;;;6.00;99.90;;;;;;5023406;28;19921;-81
2022/11/30 01:19:03;;;;;;;;;;;5.90;99.90;;;;;;5058746;28;19921;-80
2022/11/30 01:21:29;;;;;;;;;;;5.90;99.90;;;;;;5038536;28;20000;-81
2022/11/30 01:23:55;;;;;;;;;;;5.90;99.90;;;;;;5056323;28;20556;-80
2022/11/30 01:26:21;;;;;;;;;;;5.90;99.90;;;;;;5038629;28;19995;-81
2022/11/30 01:28:51;;;;;;;;;;;5.90;99.90;;;;;;5060244;28;19975;-80
2022/11/30 01:31:16;;;;;;;;;;;5.90;99.90;;;;;;5031850;28;19975;-80
2022/11/30 01:33:42;;;;;;;;;;;5.90;99.90;;;;;;5030846;28;19929;-81
2022/11/30 01:36:18;;;;;;;;;;;6.10;99.90;;;;;;5039653;28;19924;-80
2022/11/30 01:38:51;;;;;;;;;;;5.90;99.90;;;;;;5056165;28;19932;-81
2022/11/30 01:41:18;;;;;;;;;;;5.90;99.90;;;;;;5044729;28;19931;-81
2022/11/30 01:43:55;;;;;;;;;;;5.80;99.90;;;;;;5061345;28;19920;-80
2022/11/30 01:46:30;;;;;;;;;;;5.90;99.90;;;;;;5057181;28;20015;-81
2022/11/30 01:49:22;;;;;;;;;;;5.90;99.90;;;;;;5057775;28;19927;-80
2022/11/30 01:51:52;;;;;;;;;;;5.80;99.90;;;;;;5055801;28;19927;-81
2022/11/30 01:54:22;;;;;;;;;;;5.80;99.90;;;;;;5061397;28;19921;-81
2022/11/30 01:56:50;;;;;;;;;;;5.90;99.90;;;;;;5063932;28;20016;-80
2022/11/30 01:59:16;;;;;;;;;;;6.40;99.90;;;;;;5039554;28;19999;-81
2022/11/30 02:01:42;;;;;;;;;;;5.80;99.90;;;;;;5063310;28;19925;-80
2022/11/30 02:04:10;;;;;;;;;;;5.80;99.90;;;;;;5043677;28;19968;-81
2022/11/30 02:06:36;;;;;;;;;;;5.80;99.90;;;;;;5054175;28;20443;-81
2022/11/30 02:09:02;;;;;;;;;;;6.10;99.90;;;;;;5055324;28;19967;-80
2022/11/30 02:11:27;;;;;;;;;;;6.40;99.90;;;;;;5045660;28;19921;-81
2022/11/30 02:14:02;;;;;;;;;;;5.80;99.90;;;;;;5059338;28;19968;-80
2022/11/30 02:16:33;;;;;;;;;;;5.80;99.90;;;;;;5057756;28;20397;-80
2022/11/30 02:19:11;;;;;;;;;;;6.00;99.90;;;;;;5060999;28;19921;-81
2022/11/30 02:21:56;;;;;;;;;;;5.80;99.90;;;;;;5054352;28;19925;-81
2022/11/30 02:24:40;;;;;;;;;;;5.80;99.90;;;;;;5039225;28;19925;-81
2022/11/30 02:27:14;;;;;;;;;;;5.80;99.90;;;;;;5042649;28;19921;-81
2022/11/30 02:29:41;;;;;;;;;;;5.70;99.90;;;;;;5045003;28;19920;-81
2022/11/30 02:32:13;;;;;;;;;;;5.70;99.90;;;;;;5056291;28;20287;-80
2022/11/30 02:34:39;;;;;;;;;;;5.70;99.90;;;;;;5058460;28;19951;-81
2022/11/30 02:37:07;;;;;;;;;;;5.70;99.90;;;;;;5061080;28;19925;-81
2022/11/30 02:39:32;;;;;;;;;;;6.20;99.90;;;;;;5059039;28;19924;-81
2022/11/30 02:41:58;;;;;;;;;;;5.70;99.90;;;;;;5040138;28;19971;-81
2022/11/30 02:44:24;;;;;;;;;;;5.70;99.90;;;;;;5045432;28;19924;-81
2022/11/30 02:47:00;;;;;;;;;;;6.30;99.90;;;;;;5042058;28;19928;-80
2022/11/30 02:49:29;;;;;;;;;;;5.70;99.90;;;;;;5056233;28;19927;-81
2022/11/30 02:51:56;;;;;;;;;;;5.70;99.90;;;;;;5040712;28;19928;-81
2022/11/30 02:54:22;;;;;;;;;;;6.90;99.90;;;;;;5041980;28;19992;-81
2022/11/30 02:56:48;;;;;;;;;;;5.70;99.90;;;;;;5047613;28;19920;-81
2022/11/30 02:59:13;;;;;;;;;;;5.90;99.90;;;;;;5058625;28;19928;-81
2022/11/30 03:01:39;;;;;;;;;;;5.70;99.90;;;;;;5056390;28;19933;-81
2022/11/30 03:04:05;;;;;;;;;;;5.70;99.90;;;;;;5043381;28;20010;-81
2022/11/30 03:06:30;;;;;;;;;;;5.60;99.90;;;;;;5034361;28;20503;-80
2022/11/30 03:08:56;;;;;;;;;;;5.60;99.90;;;;;;5063036;28;19928;-81
2022/11/30 03:11:21;;;;;;;;;;;5.80;99.90;;;;;;5039446;28;19920;-81
2022/11/30 03:13:47;;;;;;;;;;;5.60;99.90;;;;;;5061892;28;19944;-81
2022/11/30 03:16:13;;;;;;;;;;;5.60;99.90;;;;;;5045226;28;19921;-81
2022/11/30 03:18:39;;;;;;;;;;;6.40;99.90;;;;;;5063649;28;19925;-81
2022/11/30 03:21:09;;;;;;;;;;;5.60;99.90;;;;;;5060260;28;19925;-80
2022/11/30 03:23:35;;;;;;;;;;;5.60;99.90;;;;;;5038637;28;19931;-81
2022/11/30 03:26:00;;;;;;;;;;;5.60;99.90;;;;;;5042066;28;19921;-80
2022/11/30 03:28:26;;;;;;;;;;;5.60;99.90;;;;;;5039964;28;20107;-81
2022/11/30 03:30:52;;;;;;;;;;;5.60;99.90;;;;;;5043464;28;19924;-81
2022/11/30 03:33:17;;;;;;;;;;;5.60;99.90;;;;;;5063301;28;19920;-80
2022/11/30 03:35:43;;;;;;;;;;;5.60;99.90;;;;;;5042446;28;20633;-81
2022/11/30 03:38:09;;;;;;;;;;;6.20;99.90;;;;;;5061704;28;19924;-80
2022/11/30 03:40:37;;;;;;;;;;;5.60;99.90;;;;;;5060727;28;19920;-81
2022/11/30 03:43:03;;;;;;;;;;;5.60;99.90;;;;;;5052212;28;19925;-81
2022/11/30 03:45:29;;;;;;;;;;;5.60;99.90;;;;;;5046134;28;19932;-80
2022/11/30 03:47:54;;;;;;;;;;;5.60;99.90;;;;;;5047291;28;19921;-81
2022/11/30 03:50:20;;;;;;;;;;;5.60;99.90;;;;;;5048351;28;19924;-80
2022/11/30 03:52:45;;;;;;;;;;;5.50;99.90;;;;;;5062678;28;19929;-81
2022/11/30 03:55:11;;;;;;;;;;;5.60;99.90;;;;;;5028621;28;20164;-80
2022/11/30 03:57:37;;;;;;;;;;;5.60;99.90;;;;;;5057571;28;19952;-81
2022/11/30 04:00:03;;;;;;;;;;;5.60;99.90;;;;;;5028198;28;19928;-81
2022/11/30 04:02:29;;;;;;;;;;;5.60;99.90;;;;;;5057376;28;20400;-81
2022/11/30 04:04:54;;;;;;;;;;;5.50;99.90;;;;;;5058319;28;20023;-81
2022/11/30 04:07:20;;;;;;;;;;;5.60;99.90;;;;;;5060890;28;19986;-81
2022/11/30 04:09:46;;;;;;;;;;;5.60;99.90;;;;;;5044366;28;19928;-80
2022/11/30 04:12:11;;;;;;;;;;;5.60;99.90;;;;;;5054444;28;19966;-81
2022/11/30 04:14:37;;;;;;;;;;;5.60;99.90;;;;;;5046064;28;20436;-81
2022/11/30 04:17:02;;;;;;;;;;;5.60;99.90;;;;;;5024507;28;19994;-81
2022/11/30 04:19:28;;;;;;;;;;;6.00;99.90;;;;;;5060578;28;19927;-81
2022/11/30 04:21:53;;;;;;;;;;;5.60;99.90;;;;;;5061315;28;19931;-81
2022/11/30 04:24:19;;;;;;;;;;;5.60;99.90;;;;;;5054604;28;20424;-81
2022/11/30 04:26:45;;;;;;;;;;;5.70;99.90;;;;;;5061545;28;19920;-81
2022/11/30 04:29:10;;;;;;;;;;;5.60;99.90;;;;;;5038748;28;19963;-81
2022/11/30 04:31:36;;;;;;;;;;;5.60;99.90;;;;;;5042255;28;20431;-81
2022/11/30 04:34:01;;;;;;;;;;;6.00;99.90;;;;;;5061320;28;19964;-80
2022/11/30 04:36:27;;;;;;;;;;;5.60;99.90;;;;;;5028528;28;19931;-81
2022/11/30 04:38:52;;;;;;;;;;;5.50;99.90;;;;;;5054479;28;20529;-81
2022/11/30 04:41:18;;;;;;;;;;;5.80;99.90;;;;;;5044214;28;19928;-81
2022/11/30 04:43:43;;;;;;;;;;;5.60;99.90;;;;;;5045605;28;19932;-81
2022/11/30 04:46:11;;;;;;;;;;;6.20;99.90;;;;;;5054176;28;20437;-81
2022/11/30 04:48:36;;;;;;;;;;;5.60;99.90;;;;;;5054979;28;19983;-81
2022/11/30 04:51:04;;;;;;;;;;;5.60;99.90;;;;;;5042095;28;20389;-80
2022/11/30 04:53:30;;;;;;;;;;;5.50;99.90;;;;;;5060687;28;19927;-81
2022/11/30 04:55:56;;;;;;;;;;;5.60;99.90;;;;;;5043083;28;20408;-80
2022/11/30 04:58:22;;;;;;;;;;;5.60;99.90;;;;;;5040752;28;19920;-80
2022/11/30 05:00:47;;;;;;;;;;;5.60;99.90;;;;;;5041142;28;20431;-81
2022/11/30 05:03:13;;;;;;;;;;;5.50;99.90;;;;;;5038868;28;19933;-81
2022/11/30 05:05:38;;;;;;;;;;;5.50;99.90;;;;;;5042908;28;19929;-80
2022/11/30 05:08:04;;;;;;;;;;;5.60;99.90;;;;;;5041179;28;19925;-80
2022/11/30 05:10:32;;;;;;;;;;;5.50;99.90;;;;;;5040093;28;19921;-81
2022/11/30 05:12:58;;;;;;;;;;;5.50;99.90;;;;;;5041392;28;20302;-80
2022/11/30 05:15:23;;;;;;;;;;;5.40;99.90;;;;;;5057882;28;19960;-80
2022/11/30 05:17:49;;;;;;;;;;;5.40;99.90;;;;;;5041886;28;20424;-81
2022/11/30 05:20:14;;;;;;;;;;;5.40;99.90;;;;;;5058473;28;20286;-81
2022/11/30 05:22:40;;;;;;;;;;;5.40;99.90;;;;;;5043981;28;19928;-81
2022/11/30 05:25:06;;;;;;;;;;;5.40;99.90;;;;;;5054606;28;19960;-81
2022/11/30 05:27:31;;;;;;;;;;;5.40;99.90;;;;;;5057239;28;20418;-81
2022/11/30 05:29:57;;;;;;;;;;;5.40;99.90;;;;;;5043494;28;20315;-81
2022/11/30 05:32:23;;;;;;;;;;;5.50;99.90;;;;;;5053803;28;19944;-81
2022/11/30 05:34:48;;;;;;;;;;;5.40;99.90;;;;;;5057416;28;20293;-81
2022/11/30 05:37:14;;;;;;;;;;;5.60;99.90;;;;;;5056456;28;19925;-80
2022/11/30 05:39:39;;;;;;;;;;;5.60;99.90;;;;;;5060957;28;20393;-81
2022/11/30 05:42:05;;;;;;;;;;;5.50;99.90;;;;;;5057494;28;19963;-80
2022/11/30 05:44:30;;;;;;;;;;;5.40;99.90;;;;;;5041590;28;19936;-80
2022/11/30 05:46:56;;;;;;;;;;;5.40;99.90;;;;;;5022418;28;19925;-81
2022/11/30 05:49:21;;;;;;;;;;;5.40;99.90;;;;;;5055561;28;19982;-81
2022/11/30 05:51:47;;;;;;;;;;;5.40;99.90;;;;;;5039940;28;20295;-80
2022/11/30 05:54:12;;;;;;;;;;;6.00;99.90;;;;;;5043167;28;19959;-81
2022/11/30 05:56:38;;;;;;;;;;;5.30;99.90;;;;;;5042561;28;19994;-81
2022/11/30 05:59:04;;;;;;;;;;;5.30;99.90;;;;;;5058538;28;20353;-81
2022/11/30 06:01:29;;;;;;;;;;;5.30;99.90;;;;;;5042204;28;20004;-81
2022/11/30 06:03:55;;;;;;;;;;;5.40;99.90;;;;;;5041792;28;19931;-81
2022/11/30 06:06:21;;;;;;;;;;;5.30;99.90;;;;;;5054701;28;19982;-81
2022/11/30 06:08:47;;;;;;;;;;;5.30;99.90;;;;;;5060801;28;19950;-81
2022/11/30 06:11:14;;;;;;;;;;;5.30;99.90;;;;;;5060082;28;21257;-80
2022/11/30 06:13:39;;;;;;;;;;;5.30;99.90;;;;;;5037864;28;19921;-79
2022/11/30 06:16:05;;;;;;;;;;;5.70;99.90;;;;;;5061408;28;19932;-80
2022/11/30 06:18:31;;;;;;;;;;;5.20;99.90;;;;;;5061299;28;19928;-81
2022/11/30 06:21:04;;;;;;;;;;;5.20;99.90;;;;;;5047962;28;19960;-80
2022/11/30 06:23:30;;;;;;;;;;;5.20;99.90;;;;;;5042215;28;19929;-80
2022/11/30 06:25:56;;;;;;;;;;;5.20;99.90;;;;;;5057782;28;20058;-81
2022/11/30 06:28:22;;;;;;;;;;;5.20;99.90;;;;;;5039375;28;20007;-81
2022/11/30 06:30:47;;;;;;;;;;;5.40;99.90;;;;;;5052185;28;19928;-82
2022/11/30 06:33:13;;;;;;;;;;;5.30;99.90;;;;;;5040043;28;19940;-81
2022/11/30 06:35:45;;;;;;;;;;;5.20;99.90;;;;;;5053970;28;20010;-81
2022/11/30 06:38:11;;;;;;;;;;;5.20;99.90;;;;;;5054056;28;20069;-81
2022/11/30 06:40:36;;;;;;;;;;;5.20;99.90;;;;;;5022388;28;20437;-81
2022/11/30 06:43:02;;;;;;;;;;;5.20;99.90;;;;;;5033990;28;20066;-81
2022/11/30 06:45:28;;;;;;;;;;;5.10;99.90;;;;;;5043823;28;20319;-81
2022/11/30 06:47:54;;;;;;;;;;;5.50;99.90;;;;;;5037063;28;19921;-81
2022/11/30 06:50:20;;;;;;;;;;;5.20;99.90;;;;;;5035151;28;20297;-81
2022/11/30 06:52:45;;;;;;;;;;;5.10;99.90;;;;;;5054204;28;19920;-81
2022/11/30 06:55:11;;;;;;;;;;;5.10;99.90;;;;;;5045522;28;19937;-81
2022/11/30 06:57:36;;;;;;;;;;;5.60;99.90;;;;;;5038274;28;19924;-81
2022/11/30 07:00:02;;;;;;;;;;;5.20;99.90;;;;;;5034867;28;19921;-81
2022/11/30 07:02:28;;;;;;;;;;;5.20;99.90;;;;;;5047991;28;19925;-80
2022/11/30 07:04:54;;;;;;;;;;;5.10;99.90;;;;;;5034268;28;20321;-80
2022/11/30 07:07:19;;;;;;;;;;;5.10;99.90;;;;;;5027215;28;19929;-81
2022/11/30 07:09:45;;;;;;;;;;;5.20;99.90;;;;;;5047644;28;20425;-80
2022/11/30 07:12:11;;;;;;;;;;;5.20;99.90;;;;;;5050606;28;20366;-80
2022/11/30 07:14:37;;;;;;;;;;;5.10;99.90;;;;;;5029838;28;20378;-80
2022/11/30 07:17:03;;;;;;;;;;;5.10;99.90;;;;;;5053561;28;19960;-80
2022/11/30 07:19:29;;;;;;;;;;;5.10;99.90;;;;;;5052502;28;19929;-80
2022/11/30 07:21:55;;;;;;;;;;;5.50;99.90;;;;;;5052607;28;20001;-80
2022/11/30 07:27:05;;;;;;;;;;;5.10;99.90;;;;;;5034663;28;20271;-80
2022/11/30 07:29:31;;;;;;;;;;;5.30;99.90;;;;;;5054387;28;20390;-79
2022/11/30 07:31:56;;;;;;;;;;;5.10;99.90;;;;;;5024572;28;19921;-79
2022/11/30 07:34:22;;;;;;;;;;;5.10;99.90;;;;;;5037908;28;19939;-79
2022/11/30 07:36:47;;;;;;;;;;;5.10;99.90;;;;;;5041370;28;19935;-79
2022/11/30 07:39:13;;;;;;;;;;;5.10;99.90;;;;;;5037173;28;19925;-80
2022/11/30 07:41:39;;;;;;;;;;;5.10;99.90;;;;;;5036944;28;19975;-80
2022/11/30 07:44:06;;;;;;;;;;;5.10;99.90;;;;;;5033699;28;19928;-80
2022/11/30 07:46:34;;;;;;;;;;;5.10;99.90;;;;;;5044455;28;20535;-80
2022/11/30 07:49:00;;;;;;;;;;;5.60;99.90;;;;;;5050461;28;19978;-80
2022/11/30 07:51:26;;;;;;;;;;;5.10;99.90;;;;;;5033962;28;19928;-79
2022/11/30 07:53:54;;;;;;;;;;;5.10;99.90;;;;;;5053711;28;20298;-79
2022/11/30 07:56:19;;;;;;;;;;;5.50;99.90;;;;;;5050432;28;19929;-79
2022/11/30 07:58:45;;;;;;;;;;;5.10;99.90;;;;;;5050104;28;20395;-79
2022/11/30 08:01:13;;;;;;;;;;;5.10;99.90;;;;;;5050408;28;19921;-79
2022/11/30 08:03:38;;;;;;;;;;;5.50;99.90;;;;;;5049196;28;19979;-79
2022/11/30 08:06:06;;;;;;;;;;;5.10;99.90;;;;;;5049975;28;20290;-79
2022/11/30 08:08:32;;;;;;;;;;;5.10;99.90;;;;;;5033533;28;20074;-79
2022/11/30 08:10:58;;;;;;;;;;;5.10;99.90;;;;;;5050681;28;19928;-79
2022/11/30 08:13:24;;;;;;;;;;;5.80;99.90;;;;;;5050461;28;19925;-80
2022/11/30 08:15:50;;;;;;;;;;;5.10;99.90;;;;;;5033981;28;19928;-79
2022/11/30 08:18:15;;;;;;;;;;;5.20;99.90;;;;;;5050041;28;20387;-79
2022/11/30 08:20:41;;;;;;;;;;;5.10;99.90;;;;;;5033253;28;20382;-80
2022/11/30 08:23:06;;;;;;;;;;;5.20;99.90;;;;;;5032435;28;19928;-80
2022/11/30 08:25:35;;;;;;;;;;;5.20;99.90;;;;;;5050050;28;19986;-80
2022/11/30 08:28:01;;;;;;;;;;;5.20;99.90;;;;;;5050243;28;19951;-79
2022/11/30 08:30:26;;;;;;;;;;;5.20;99.90;;;;;;5049320;28;20370;-80
2022/11/30 08:32:52;;;;;;;;;;;5.80;99.90;;;;;;5016690;28;19924;-80
2022/11/30 08:35:17;;;;;;;;;;;5.20;99.90;;;;;;5033218;28;19928;-80
2022/11/30 08:37:43;;;;;;;;;;;5.20;99.90;;;;;;5049593;28;19928;-80
2022/11/30 08:40:09;;;;;;;;;;;5.30;99.90;;;;;;5049972;28;19975;-80
2022/11/30 08:42:35;;;;;;;;;;;5.10;99.90;;;;;;5032474;28;20409;-80
2022/11/30 08:45:00;;;;;;;;;;;6.00;99.90;;;;;;5032808;28;19921;-79
2022/11/30 08:47:27;;;;;;;;;;;5.10;99.90;;;;;;5032106;28;19928;-79
2022/11/30 08:49:53;;;;;;;;;;;5.10;99.90;;;;;;5049483;28;20015;-80
2022/11/30 08:52:18;;;;;;;;;;;5.10;99.90;;;;;;5059253;28;20063;-80
2022/11/30 08:54:45;;;;;;;;;;;5.10;99.90;;;;;;5054333;28;19944;-79
2022/11/30 08:57:10;;;;;;;;;;;5.10;99.90;;;;;;5043221;28;19990;-79
2022/11/30 08:59:36;;;;;;;;;;;5.20;99.90;;;;;;5049066;28;19988;-79
2022/11/30 09:02:02;;;;;;;;;;;5.20;99.90;;;;;;5032591;28;19929;-79
2022/11/30 09:04:27;;;;;;;;;;;5.20;99.90;;;;;;5057783;28;20007;-79
2022/11/30 09:06:57;;;;;;;;;;;5.20;99.90;;;;;;5034230;28;19996;-79
2022/11/30 09:09:24;;;;;;;;;;;5.20;99.90;;;;;;5032371;28;19925;-79
2022/11/30 09:11:49;;;;;;;;;;;5.20;99.90;;;;;;5047881;28;19950;-79
2022/11/30 09:14:15;;;;;;;;;;;5.20;99.90;;;;;;5015650;28;19927;-79
2022/11/30 09:16:41;;;;;;;;;;;5.20;99.90;;;;;;5049318;28;19935;-79
2022/11/30 09:19:07;;;;;;;;;;;5.20;99.90;;;;;;5015162;28;19975;-79
2022/11/30 09:21:33;;;;;;;;;;;5.80;99.90;;;;;;5032499;28;19920;-79
2022/11/30 09:23:58;;;;;;;;;;;5.20;99.90;;;;;;5032087;28;19925;-81
2022/11/30 09:26:24;;;;;;;;;;;5.20;99.90;;;;;;5032672;28;20011;-80
2022/11/30 09:28:50;;;;;;;;;;;5.30;99.90;;;;;;5048932;28;19925;-83
2022/11/30 09:31:17;;;;;;;;;;;5.20;99.90;;;;;;5033183;28;19924;-81
2022/11/30 09:33:43;;;;;;;;;;;5.20;99.90;;;;;;5029970;28;19920;-80
2022/11/30 09:36:10;;;;;;;;;;;5.30;99.90;;;;;;5031420;28;19921;-80
2022/11/30 09:38:36;;;;;;;;;;;5.30;99.90;;;;;;5045448;28;20404;-80
2022/11/30 09:41:10;;;;;;;;;;;5.30;99.90;;;;;;5047094;28;19925;-80
2022/11/30 09:43:36;;;;;;;;;;;5.30;99.90;;;;;;5048791;28;19925;-80
2022/11/30 09:46:03;;;;;;;;;;;5.20;99.90;;;;;;5049120;28;20003;-80
2022/11/30 09:48:49;;;;;;;;;;;5.20;99.90;;;;;;5049427;28;19921;-80
2022/11/30 09:51:19;;;;;;;;;;;5.20;99.90;;;;;;5048971;28;19921;-80
2022/11/30 09:53:50;;;;;;;;;;;5.20;99.90;;;;;;5032164;28;19921;-80
2022/11/30 09:56:18;;;;;;;;;;;5.90;99.90;;;;;;5052033;28;19995;-80
2022/11/30 09:58:51;;;;;;;;;;;5.30;99.90;;;;;;5036553;28;19924;-80
2022/11/30 10:01:18;;;;;;;;;;;5.30;99.90;;;;;;5052918;28;19990;-80
2022/11/30 10:03:44;;;;;;;;;;;5.40;99.90;;;;;;5052966;28;19932;-80
2022/11/30 10:06:14;;;;;;;;;;;5.50;99.90;;;;;;5057917;28;19921;-80
2022/11/30 10:08:52;;;;;;;;;;;6.00;99.90;;;;;;5059390;28;20019;-80
2022/11/30 10:11:21;;;;;;;;;;;5.40;99.90;;;;;;5036328;28;19924;-80
2022/11/30 10:14:02;;;;;;;;;;;5.50;99.90;;;;;;5036152;28;19995;-80
2022/11/30 10:16:37;;;;;;;;;;;5.50;99.90;;;;;;5036308;28;19925;-80
2022/11/30 10:19:26;;;;;;;;;;;5.50;99.90;;;;;;5035108;28;19959;-80
2022/11/30 10:21:55;;;;;;;;;;;5.50;99.90;;;;;;5027487;28;19929;-80
2022/11/30 10:24:39;;;;;;;;;;;5.50;99.90;;;;;;5035576;28;19925;-80
2022/11/30 10:27:12;;;;;;;;;;;5.50;99.90;;;;;;5052341;28;20440;-80
2022/11/30 10:29:39;;;;;;;;;;;5.50;99.90;;;;;;5052538;28;19964;-80
2022/11/30 10:32:34;;;;;;;;;;;5.50;99.90;;;;;;5052163;28;19967;-80
2022/11/30 10:35:02;;;;;;;;;;;5.40;99.90;;;;;;5039195;28;19956;-80
2022/11/30 10:37:34;;;;;;;;;;;5.50;99.90;;;;;;5052446;28;19928;-81
2022/11/30 10:40:11;;;;;;;;;;;5.50;99.90;;;;;;5035859;28;19925;-80
2022/11/30 10:42:43;;;;;;;;;;;5.50;99.90;;;;;;5051936;28;19972;-80
2022/11/30 10:45:13;;;;;;;;;;;5.50;99.90;;;;;;5051990;28;20633;-80
2022/11/30 10:47:45;;;;;;;;;;;5.50;99.90;;;;;;5051976;28;19963;-80
2022/11/30 10:50:15;;;;;;;;;;;6.30;99.90;;;;;;5051976;28;19921;-80
2022/11/30 10:52:43;;;;;;;;;;;5.50;99.90;;;;;;5035305;28;19931;-81
2022/11/30 10:55:12;;;;;;;;;;;5.50;99.90;;;;;;5051502;28;20011;-80
2022/11/30 10:57:37;;;;;;;;;;;5.50;99.90;;;;;;5051749;28;19999;-80
2022/11/30 11:00:05;;;;;;;;;;;5.50;99.90;;;;;;5035268;28;20012;-80
2022/11/30 11:02:33;;;;;;;;;;;5.50;99.90;;;;;;5051412;28;19925;-80
2022/11/30 11:05:14;;;;;;;;;;;5.50;99.90;;;;;;5034872;28;19968;-80
2022/11/30 11:07:43;;;;;;;;;;;5.60;99.90;;;;;;5051545;28;19953;-80
2022/11/30 11:10:12;;;;;;;;;;;5.60;99.90;;;;;;5035181;28;19921;-80
2022/11/30 11:12:38;;;;;;;;;;;5.50;99.90;;;;;;5035232;28;20019;-80
2022/11/30 11:15:17;;;;;;;;;;;5.60;99.90;;;;;;5034879;28;20426;-80
2022/11/30 11:17:43;;;;;;;;;;;5.50;99.90;;;;;;5059277;28;19920;-81
2022/11/30 11:20:27;;;;;;;;;;;5.50;99.90;;;;;;5056219;28;19933;-80
2022/11/30 11:22:53;;;;;;;;;;;5.60;99.90;;;;;;5051685;28;19920;-80
2022/11/30 11:25:20;;;;;;;;;;;5.60;99.90;;;;;;5034521;28;20019;-80
2022/11/30 11:27:53;;;;;;;;;;;5.50;99.90;;;;;;5051017;28;19973;-80
2022/11/30 11:30:21;;;;;;;;;;;5.60;99.90;;;;;;5056785;28;19925;-80
2022/11/30 11:33:06;;;;;;;;;;;5.60;99.90;;;;;;5063351;28;20110;-80
2022/11/30 11:35:42;;;;;;;;;;;5.50;99.90;;;;;;5034699;28;19921;-80
2022/11/30 11:38:19;;;;;;;;;;;5.50;99.90;;;;;;5051311;28;19925;-80
2022/11/30 11:40:56;;;;;;;;;;;5.60;99.90;;;;;;5034374;28;19928;-80
2022/11/30 11:43:22;;;;;;;;;;;5.60;99.90;;;;;;5051009;28;19928;-80
2022/11/30 11:45:50;;;;;;;;;;;5.60;99.90;;;;;;5059196;28;19952;-81
2022/11/30 11:48:42;;;;;;;;;;;5.60;99.90;;;;;;5035420;28;20012;-80
2022/11/30 11:51:09;;;;;;;;;;;5.60;99.90;;;;;;5011154;28;19925;-80
2022/11/30 11:53:34;;;;;;;;;;;5.50;99.90;;;;;;5050793;28;19920;-80
2022/11/30 11:56:23;;;;;;;;;;;5.80;99.90;;;;;;5051219;28;20393;-80
2022/11/30 11:58:52;;;;;;;;;;;5.50;99.90;;;;;;5051074;28;20393;-81
2022/11/30 12:01:32;;;;;;;;;;;5.50;99.90;;;;;;5033803;28;20293;-80
2022/11/30 12:04:16;;;;;;;;;;;5.50;99.90;;;;;;5050402;28;19924;-81
2022/11/30 12:06:43;;;;;;;;;;;5.50;99.90;;;;;;5033932;28;19920;-80
2022/11/30 12:09:14;;;;;;;;;;;5.60;99.90;;;;;;5050559;28;19924;-80
2022/11/30 12:11:45;;;;;;;;;;;5.50;99.90;;;;;;5050875;28;19921;-80
2022/11/30 12:14:12;;;;;;;;;;;5.50;99.90;;;;;;5050386;28;19921;-80
2022/11/30 12:16:56;;;;;;;;;;;5.50;99.90;;;;;;5050361;28;19925;-80
2022/11/30 12:19:42;;;;;;;;;;;5.50;99.90;;;;;;5047453;28;19925;-80
2022/11/30 12:22:37;;;;;;;;;;;5.70;99.90;;;;;;5049542;28;20409;-80
2022/11/30 12:25:19;;;;;;;;;;;5.50;99.90;;;;;;5032651;28;20015;-81
2022/11/30 12:27:51;;;;;;;;;;;5.60;99.90;;;;;;5036552;28;19928;-80
2022/11/30 12:30:17;;;;;;;;;;;5.60;99.90;;;;;;5050108;28;19994;-80
2022/11/30 12:33:15;;;;;;;;;;;5.50;99.90;;;;;;5033839;28;20374;-80
2022/11/30 12:35:40;;;;;;;;;;;5.50;99.90;;;;;;5004663;28;19928;-80
2022/11/30 12:38:06;;;;;;;;;;;5.70;99.90;;;;;;5050112;28;19921;-80
2022/11/30 12:40:40;;;;;;;;;;;5.60;99.90;;;;;;5050002;28;19920;-80
2022/11/30 12:43:38;;;;;;;;;;;5.60;99.90;;;;;;5033291;28;20393;-80
2022/11/30 12:46:10;;;;;;;;;;;5.50;99.90;;;;;;5000080;28;19920;-80
2022/11/30 12:48:39;;;;;;;;;;;5.50;99.90;;;;;;5049955;28;19921;-80
2022/11/30 12:51:19;;;;;;;;;;;5.50;99.90;;;;;;5033452;28;19920;-80
2022/11/30 12:53:55;;;;;;;;;;;5.50;99.90;;;;;;5048649;28;20500;-80
2022/11/30 12:56:43;;;;;;;;;;;5.50;99.90;;;;;;5049559;28;19964;-81
2022/11/30 12:59:14;;;;;;;;;;;5.50;99.90;;;;;;5049388;28;20024;-80
2022/11/30 13:01:43;;;;;;;;;;;5.60;99.90;;;;;;5049425;28;20012;-80
2022/11/30 13:04:26;;;;;;;;;;;5.60;99.90;;;;;;5032899;28;19928;-80
2022/11/30 13:06:54;;;;;;;;;;;5.60;99.90;;;;;;5051336;28;19929;-80
2022/11/30 13:09:37;;;;;;;;;;;5.60;99.90;;;;;;5032865;28;19921;-80
2022/11/30 13:12:09;;;;;;;;;;;5.60;99.90;;;;;;5049181;28;19975;-80
2022/11/30 13:14:34;;;;;;;;;;;5.60;99.90;;;;;;5049660;28;19921;-80
2022/11/30 13:17:04;;;;;;;;;;;5.60;99.90;;;;;;5049318;28;20439;-80
2022/11/30 13:19:45;;;;;;;;;;;5.60;99.90;;;;;;5049163;28;19932;-80
2022/11/30 13:22:16;;;;;;;;;;;5.60;99.90;;;;;;5049086;28;19974;-80
2022/11/30 13:24:46;;;;;;;;;;;5.60;99.90;;;;;;5048776;28;19924;-80
2022/11/30 13:27:15;;;;;;;;;;;5.60;99.90;;;;;;5049187;28;20397;-80
2022/11/30 13:29:43;;;;;;;;;;;5.60;99.90;;;;;;5049164;28;19933;-80
2022/11/30 13:32:14;;;;;;;;;;;5.70;99.90;;;;;;5049237;28;20382;-81
2022/11/30 13:34:40;;;;;;;;;;;5.60;99.90;;;;;;5048970;28;19921;-80
2022/11/30 13:37:08;;;;;;;;;;;5.60;99.90;;;;;;5048914;28;19931;-80
2022/11/30 13:39:43;;;;;;;;;;;5.60;99.90;;;;;;5032476;28;19929;-81
2022/11/30 13:42:18;;;;;;;;;;;5.60;99.90;;;;;;5049043;28;19978;-80
2022/11/30 13:44:44;;;;;;;;;;;6.10;99.90;;;;;;5032262;28;19985;-80
2022/11/30 13:47:17;;;;;;;;;;;5.50;99.90;;;;;;5054511;28;19920;-80
2022/11/30 13:49:44;;;;;;;;;;;5.50;99.90;;;;;;5051872;28;19945;-81
2022/11/30 13:52:13;;;;;;;;;;;5.40;99.90;;;;;;5049185;28;20019;-80
2022/11/30 13:54:57;;;;;;;;;;;5.60;99.90;;;;;;5050148;28;19921;-80
2022/11/30 13:57:28;;;;;;;;;;;5.40;99.90;;;;;;5036583;28;20417;-81
2022/11/30 13:59:55;;;;;;;;;;;5.50;99.90;;;;;;5031360;28;19943;-82
2022/11/30 14:02:41;;;;;;;;;;;5.40;99.90;;;;;;5048627;28;19990;-82
2022/11/30 14:05:16;;;;;;;;;;;5.40;99.90;;;;;;5032554;28;20361;-82
2022/11/30 14:07:48;;;;;;;;;;;5.40;99.90;;;;;;5048690;28;19928;-82
2022/11/30 14:10:29;;;;;;;;;;;5.40;99.90;;;;;;5031551;28;19921;-84
2022/11/30 14:13:24;;;;;;;;;;;5.40;99.90;;;;;;5048169;28;19978;-82
2022/11/30 14:15:52;;;;;;;;;;;5.40;99.90;;;;;;5046028;28;19921;-81
2022/11/30 14:18:18;;;;;;;;;;;5.40;99.90;;;;;;5049826;28;20400;-82
2022/11/30 14:20:56;;;;;;;;;;;5.40;99.90;;;;;;5031461;28;19920;-81
2022/11/30 14:23:24;;;;;;;;;;;5.40;99.90;;;;;;5031080;28;19921;-81
2022/11/30 14:25:52;;;;;;;;;;;5.40;99.90;;;;;;5048873;28;19968;-81
2022/11/30 14:28:24;;;;;;;;;;;5.40;99.90;;;;;;5039302;28;19925;-82
2022/11/30 14:30:50;;;;;;;;;;;5.40;99.90;;;;;;5031273;28;19932;-80
2022/11/30 14:33:22;;;;;;;;;;;5.30;99.90;;;;;;5036545;28;19925;-80
2022/11/30 14:35:53;;;;;;;;;;;5.30;99.90;;;;;;5047018;28;19994;-80
2022/11/30 14:38:26;;;;;;;;;;;5.30;99.90;;;;;;5047686;28;19924;-80
2022/11/30 14:40:52;;;;;;;;;;;5.30;99.90;;;;;;5039671;28;19921;-79
2022/11/30 14:43:18;;;;;;;;;;;5.30;99.90;;;;;;5031118;28;20360;-81